createdAt,value
2018-07-31T00:00:04.238Z,21.61
2018-07-31T00:02:33.691Z,21.51
2018-07-31T00:05:03.168Z,21.46
2018-07-31T00:07:32.666Z,21.44
2018-07-31T00:10:02.075Z,21.43
2018-07-31T00:12:31.718Z,21.44
2018-07-31T00:15:01.487Z,21.48
2018-07-31T00:17:31.172Z,21.48
2018-07-31T00:20:00.879Z,21.45
2018-07-31T00:22:30.543Z,21.42
2018-07-31T00:25:00.156Z,21.37
2018-07-31T00:27:29.940Z,21.32
2018-07-31T00:29:59.792Z,21.31
2018-07-31T00:32:29.072Z,21.30
2018-07-31T00:34:58.681Z,21.23
2018-07-31T00:37:28.390Z,21.21
2018-07-31T00:39:58.195Z,21.11
2018-07-31T00:42:27.806Z,20.98
2018-07-31T00:44:57.535Z,20.96
2018-07-31T00:47:27.246Z,20.88
2018-07-31T00:49:56.912Z,20.80
2018-07-31T00:52:26.463Z,20.75
2018-07-31T00:54:55.934Z,20.72
2018-07-31T00:57:25.357Z,20.75
2018-07-31T00:59:54.837Z,20.71
2018-07-31T01:02:24.342Z,20.61
2018-07-31T01:04:53.759Z,20.57
2018-07-31T01:07:23.223Z,20.48
2018-07-31T01:09:53.440Z,20.49
2018-07-31T01:12:22.847Z,20.45
2018-07-31T01:14:52.249Z,20.50
2018-07-31T01:17:21.691Z,20.45
2018-07-31T01:19:51.167Z,20.40
2018-07-31T01:22:20.615Z,20.34
2018-07-31T01:24:50.046Z,20.22
2018-07-31T01:27:19.469Z,20.33
2018-07-31T01:29:48.890Z,20.36
2018-07-31T01:32:18.485Z,20.36
2018-07-31T01:34:47.942Z,20.31
2018-07-31T01:37:17.376Z,20.37
2018-07-31T01:39:46.807Z,20.36
2018-07-31T01:42:16.304Z,20.34
2018-07-31T01:44:45.740Z,20.31
2018-07-31T01:47:15.387Z,20.22
2018-07-31T01:49:44.778Z,20.15
2018-07-31T01:52:14.219Z,20.08
2018-07-31T01:54:44.079Z,20.03
2018-07-31T01:57:13.506Z,19.98
2018-07-31T01:59:43.153Z,19.88
2018-07-31T02:02:12.556Z,19.87
2018-07-31T02:04:41.967Z,19.85
2018-07-31T02:07:11.455Z,19.84
2018-07-31T02:09:40.879Z,19.87
2018-07-31T02:12:10.375Z,19.83
2018-07-31T02:14:39.864Z,19.81
2018-07-31T02:17:09.271Z,19.82
2018-07-31T02:19:38.694Z,19.84
2018-07-31T02:22:08.156Z,19.88
2018-07-31T02:24:37.587Z,19.86
2018-07-31T02:27:07.295Z,19.80
2018-07-31T02:29:41.924Z,19.81
2018-07-31T02:32:11.359Z,19.65
2018-07-31T02:34:40.776Z,19.54
2018-07-31T02:37:10.202Z,19.51
2018-07-31T02:39:39.478Z,19.39
2018-07-31T02:42:09.041Z,19.40
2018-07-31T02:44:38.520Z,19.32
2018-07-31T02:47:07.983Z,19.34
2018-07-31T02:49:37.409Z,19.31
2018-07-31T02:52:06.919Z,19.29
2018-07-31T02:54:36.496Z,19.29
2018-07-31T02:57:06.155Z,19.34
2018-07-31T02:59:35.675Z,19.35
2018-07-31T03:02:05.215Z,19.38
2018-07-31T03:04:34.827Z,19.36
2018-07-31T03:07:04.292Z,19.34
2018-07-31T03:09:33.790Z,19.31
2018-07-31T03:12:03.307Z,19.28
2018-07-31T03:14:32.863Z,19.15
2018-07-31T03:17:02.295Z,19.14
2018-07-31T03:19:31.867Z,19.11
2018-07-31T03:22:01.346Z,19.10
2018-07-31T03:24:30.817Z,19.08
2018-07-31T03:27:00.286Z,19.08
2018-07-31T03:29:29.717Z,19.03
2018-07-31T03:31:59.131Z,18.99
2018-07-31T03:34:28.611Z,18.99
2018-07-31T03:36:57.791Z,18.97
2018-07-31T03:39:27.211Z,18.91
2018-07-31T03:41:56.667Z,18.92
2018-07-31T03:44:26.169Z,18.90
2018-07-31T03:46:55.594Z,18.93
2018-07-31T03:49:25.208Z,18.92
2018-07-31T03:51:54.694Z,18.86
2018-07-31T03:54:24.202Z,18.76
2018-07-31T03:56:53.623Z,18.79
2018-07-31T03:59:23.071Z,18.86
2018-07-31T04:01:52.508Z,18.83
2018-07-31T04:04:21.930Z,18.78
2018-07-31T04:06:51.387Z,18.73
2018-07-31T04:09:20.796Z,18.71
2018-07-31T04:11:50.230Z,18.66
2018-07-31T04:14:19.667Z,18.58
2018-07-31T04:16:49.419Z,18.61
2018-07-31T04:19:18.812Z,18.64
2018-07-31T04:22:25.286Z,18.71
2018-07-31T04:24:54.907Z,18.65
2018-07-31T04:27:24.338Z,18.68
2018-07-31T04:29:53.883Z,18.72
2018-07-31T04:32:23.333Z,18.76
2018-07-31T04:34:52.774Z,18.86
2018-07-31T04:37:22.212Z,18.79
2018-07-31T04:39:51.622Z,18.79
2018-07-31T04:42:21.085Z,18.86
2018-07-31T04:44:50.500Z,18.88
2018-07-31T04:47:19.902Z,18.99
2018-07-31T04:49:49.343Z,19.08
2018-07-31T04:52:18.806Z,19.18
2018-07-31T04:54:48.212Z,19.24
2018-07-31T04:57:17.694Z,19.29
2018-07-31T04:59:47.103Z,19.31
2018-07-31T05:02:17.675Z,19.42
2018-07-31T05:04:47.090Z,19.53
2018-07-31T05:07:16.553Z,19.65
2018-07-31T05:09:46.005Z,19.69
2018-07-31T05:12:15.798Z,19.78
2018-07-31T05:14:45.213Z,19.86
2018-07-31T05:17:14.642Z,19.77
2018-07-31T05:19:44.076Z,19.86
2018-07-31T05:22:13.512Z,20.01
2018-07-31T05:24:43.154Z,20.19
2018-07-31T05:27:12.628Z,20.34
2018-07-31T05:29:42.221Z,20.36
2018-07-31T05:32:11.698Z,20.52
2018-07-31T05:34:41.482Z,20.62
2018-07-31T05:37:10.911Z,20.71
2018-07-31T05:39:40.344Z,20.86
2018-07-31T05:42:09.763Z,20.90
2018-07-31T05:44:39.183Z,21.07
2018-07-31T05:47:08.621Z,21.24
2018-07-31T05:49:38.124Z,21.37
2018-07-31T05:52:07.576Z,21.36
2018-07-31T05:54:37.027Z,21.44
2018-07-31T05:57:06.571Z,21.35
2018-07-31T05:59:36.094Z,21.54
2018-07-31T06:02:05.639Z,21.63
2018-07-31T06:04:35.131Z,21.85
2018-07-31T06:07:04.625Z,22.03
2018-07-31T06:12:02.555Z,22.31
2018-07-31T06:14:32.003Z,22.45
2018-07-31T06:17:01.526Z,22.62
2018-07-31T06:19:31.140Z,22.65
2018-07-31T06:22:00.537Z,22.80
2018-07-31T06:24:30.079Z,22.90
2018-07-31T06:26:59.513Z,23.03
2018-07-31T06:29:28.948Z,23.13
2018-07-31T06:31:58.340Z,23.28
2018-07-31T06:34:27.763Z,23.39
2018-07-31T06:36:57.277Z,23.54
2018-07-31T06:39:26.728Z,23.70
2018-07-31T06:41:56.172Z,23.84
2018-07-31T06:44:25.658Z,23.81
2018-07-31T06:46:55.108Z,23.99
2018-07-31T06:49:24.568Z,24.09
2018-07-31T06:51:53.998Z,24.28
2018-07-31T06:54:23.463Z,24.41
2018-07-31T06:56:52.872Z,24.53
2018-07-31T06:59:22.315Z,24.72
2018-07-31T07:01:51.738Z,24.89
2018-07-31T07:04:21.435Z,25.07
2018-07-31T07:06:50.893Z,25.21
2018-07-31T07:09:20.356Z,25.34
2018-07-31T07:11:49.771Z,25.48
2018-07-31T07:14:19.187Z,25.62
2018-07-31T07:16:48.780Z,25.73
2018-07-31T07:19:18.316Z,25.75
2018-07-31T07:21:47.824Z,25.94
2018-07-31T07:24:17.283Z,26.06
2018-07-31T07:26:46.718Z,26.21
2018-07-31T07:29:15.964Z,26.30
2018-07-31T07:31:45.451Z,26.44
2018-07-31T07:34:14.943Z,26.58
2018-07-31T07:36:44.447Z,26.69
2018-07-31T07:39:13.909Z,26.84
2018-07-31T07:41:43.454Z,26.97
2018-07-31T07:44:12.956Z,27.15
2018-07-31T07:46:42.457Z,27.29
2018-07-31T07:49:11.923Z,27.50
2018-07-31T07:51:41.515Z,27.69
2018-07-31T07:54:11.051Z,27.82
2018-07-31T07:56:40.475Z,27.97
2018-07-31T07:59:09.973Z,28.12
2018-07-31T08:01:39.483Z,28.26
2018-07-31T08:04:08.691Z,28.40
2018-07-31T08:06:37.845Z,28.46
2018-07-31T08:09:09.898Z,28.56
2018-07-31T08:11:39.443Z,28.77
2018-07-31T08:14:08.948Z,28.89
2018-07-31T08:16:38.473Z,29.05
2018-07-31T08:19:08.001Z,29.24
2018-07-31T08:21:37.507Z,29.30
2018-07-31T08:24:07.055Z,29.50
2018-07-31T08:26:36.546Z,29.64
2018-07-31T08:29:06.223Z,29.68
2018-07-31T08:31:35.677Z,29.89
2018-07-31T08:34:05.311Z,29.98
2018-07-31T08:36:34.805Z,30.21
2018-07-31T08:39:06.151Z,30.41
2018-07-31T08:41:35.822Z,30.60
2018-07-31T08:44:06.108Z,30.77
2018-07-31T08:46:35.708Z,30.89
2018-07-31T08:49:05.260Z,30.99
2018-07-31T08:51:34.794Z,31.24
2018-07-31T08:54:04.480Z,31.38
2018-07-31T08:56:33.995Z,31.64
2018-07-31T08:59:03.544Z,31.61
2018-07-31T09:01:33.006Z,31.74
2018-07-31T09:04:02.610Z,31.72
2018-07-31T09:06:32.069Z,31.89
2018-07-31T09:09:01.551Z,32.17
2018-07-31T09:11:31.017Z,32.31
2018-07-31T09:14:00.591Z,32.34
2018-07-31T09:16:30.028Z,32.57
2018-07-31T09:18:59.659Z,32.79
2018-07-31T09:21:29.263Z,32.92
2018-07-31T09:23:58.889Z,33.28
2018-07-31T09:26:28.573Z,33.42
2018-07-31T09:28:58.179Z,33.41
2018-07-31T09:31:27.668Z,33.45
2018-07-31T09:33:57.108Z,33.30
2018-07-31T09:36:26.800Z,33.43
2018-07-31T09:38:56.366Z,33.35
2018-07-31T09:41:25.838Z,33.43
2018-07-31T09:43:55.542Z,33.56
2018-07-31T09:46:24.767Z,33.44
2018-07-31T09:48:54.586Z,33.27
2018-07-31T09:51:24.055Z,32.93
2018-07-31T09:53:53.582Z,32.75
2018-07-31T09:56:23.131Z,33.04
2018-07-31T09:58:52.708Z,32.97
2018-07-31T10:01:22.215Z,32.75
2018-07-31T10:03:51.947Z,32.80
2018-07-31T10:06:21.667Z,32.99
2018-07-31T10:08:51.202Z,32.84
2018-07-31T10:11:20.723Z,32.91
2018-07-31T10:13:50.280Z,33.29
2018-07-31T10:16:19.819Z,33.58
2018-07-31T10:18:49.458Z,33.61
2018-07-31T10:21:19.186Z,33.59
2018-07-31T10:23:48.854Z,33.64
2018-07-31T10:26:18.486Z,33.41
2018-07-31T10:28:47.927Z,33.39
2018-07-31T10:31:17.605Z,33.60
2018-07-31T10:33:47.181Z,33.51
2018-07-31T10:36:16.812Z,33.58
2018-07-31T10:38:46.441Z,33.80
2018-07-31T10:41:16.022Z,34.13
2018-07-31T10:43:45.512Z,34.17
2018-07-31T10:46:15.024Z,34.09
2018-07-31T10:48:44.535Z,33.62
2018-07-31T10:51:14.239Z,33.86
2018-07-31T10:53:43.892Z,34.10
2018-07-31T10:56:13.386Z,34.20
2018-07-31T10:58:43.129Z,34.41
2018-07-31T11:01:12.723Z,34.23
2018-07-31T11:03:42.355Z,34.48
2018-07-31T11:06:11.987Z,34.59
2018-07-31T11:08:41.635Z,34.43
2018-07-31T11:11:11.130Z,34.33
2018-07-31T11:13:40.586Z,34.23
2018-07-31T11:16:10.202Z,34.29
2018-07-31T11:18:40.163Z,34.44
2018-07-31T11:21:09.820Z,34.19
2018-07-31T11:23:38.901Z,34.33
2018-07-31T11:26:08.738Z,34.11
2018-07-31T11:28:38.275Z,34.63
2018-07-31T11:31:07.997Z,34.95
2018-07-31T11:33:37.609Z,34.98
2018-07-31T11:36:07.630Z,35.43
2018-07-31T11:38:37.213Z,35.49
2018-07-31T11:41:06.928Z,35.61
2018-07-31T11:43:36.545Z,35.87
2018-07-31T11:46:06.068Z,36.01
2018-07-31T11:48:35.742Z,35.86
2018-07-31T11:52:28.135Z,35.69
2018-07-31T11:54:58.207Z,35.91
2018-07-31T11:57:27.826Z,36.20
2018-07-31T11:59:57.327Z,36.05
2018-07-31T12:02:26.795Z,36.29
2018-07-31T12:04:56.333Z,36.54
2018-07-31T12:07:25.891Z,36.00
2018-07-31T12:09:55.601Z,36.06
2018-07-31T12:12:25.225Z,36.04
2018-07-31T12:14:54.691Z,36.20
2018-07-31T12:17:24.350Z,36.25
2018-07-31T12:19:53.876Z,35.78
2018-07-31T12:22:23.379Z,35.28
2018-07-31T12:24:52.945Z,34.77
2018-07-31T12:27:22.519Z,35.06
2018-07-31T12:29:52.051Z,35.29
2018-07-31T12:32:21.651Z,34.89
2018-07-31T12:34:51.229Z,35.38
2018-07-31T12:37:20.711Z,35.99
2018-07-31T12:39:50.271Z,36.46
2018-07-31T12:42:19.802Z,36.40
2018-07-31T12:44:49.327Z,36.13
2018-07-31T12:47:18.858Z,36.13
2018-07-31T12:49:48.467Z,36.40
2018-07-31T12:52:18.051Z,36.42
2018-07-31T12:54:47.616Z,36.57
2018-07-31T12:57:17.179Z,37.07
2018-07-31T12:59:46.752Z,37.67
2018-07-31T13:02:16.459Z,37.34
2018-07-31T13:04:45.955Z,37.42
2018-07-31T13:07:15.554Z,37.40
2018-07-31T13:09:45.213Z,37.07
2018-07-31T13:12:14.803Z,37.22
2018-07-31T13:14:44.440Z,36.81
2018-07-31T13:17:14.105Z,37.15
2018-07-31T13:19:43.635Z,37.66
2018-07-31T13:22:13.209Z,37.80
2018-07-31T13:24:42.737Z,38.03
2018-07-31T13:27:12.384Z,37.98
2018-07-31T13:29:41.960Z,37.78
2018-07-31T13:32:11.602Z,38.01
2018-07-31T13:34:41.160Z,38.49
2018-07-31T13:37:10.788Z,38.68
2018-07-31T13:39:40.496Z,38.45
2018-07-31T13:42:10.045Z,38.81
2018-07-31T13:44:39.683Z,39.21
2018-07-31T13:47:09.232Z,39.61
2018-07-31T13:49:38.690Z,41.09
2018-07-31T13:52:08.359Z,42.10
2018-07-31T13:54:37.879Z,42.36
2018-07-31T13:57:07.479Z,40.12
2018-07-31T13:59:37.024Z,38.36
2018-07-31T14:02:06.567Z,37.45
2018-07-31T14:04:36.022Z,37.40
2018-07-31T14:07:05.587Z,37.78
2018-07-31T14:09:35.155Z,37.46
2018-07-31T14:12:04.413Z,37.58
2018-07-31T14:14:33.970Z,37.67
2018-07-31T14:17:03.661Z,39.12
2018-07-31T14:19:33.162Z,39.54
2018-07-31T14:22:02.677Z,40.42
2018-07-31T14:24:32.604Z,41.04
2018-07-31T14:27:02.072Z,41.75
2018-07-31T14:29:31.647Z,42.58
2018-07-31T14:32:01.213Z,43.06
2018-07-31T14:34:30.562Z,43.39
2018-07-31T14:37:00.056Z,43.98
2018-07-31T14:39:29.570Z,44.59
2018-07-31T14:41:59.048Z,43.46
2018-07-31T14:44:28.588Z,43.31
2018-07-31T14:46:58.105Z,42.51
2018-07-31T14:49:27.642Z,41.41
2018-07-31T14:51:57.118Z,41.80
2018-07-31T14:54:26.561Z,41.98
2018-07-31T14:56:56.092Z,41.85
2018-07-31T14:59:25.738Z,42.13
2018-07-31T15:01:55.275Z,39.95
2018-07-31T15:04:24.840Z,39.65
2018-07-31T15:06:54.376Z,38.65
2018-07-31T15:09:24.087Z,38.39
2018-07-31T15:11:53.631Z,37.90
2018-07-31T15:14:23.331Z,37.91
2018-07-31T15:16:52.983Z,37.46
2018-07-31T15:19:22.603Z,37.05
2018-07-31T15:21:52.106Z,37.30
2018-07-31T15:24:21.690Z,38.18
2018-07-31T15:26:51.276Z,40.53
2018-07-31T15:29:20.810Z,42.77
2018-07-31T15:31:50.398Z,44.31
2018-07-31T15:34:19.979Z,44.88
2018-07-31T15:36:49.526Z,45.28
2018-07-31T15:39:19.199Z,45.72
2018-07-31T15:41:48.689Z,46.35
2018-07-31T15:44:18.195Z,47.35
2018-07-31T15:46:47.814Z,47.69
2018-07-31T15:49:17.235Z,47.94
2018-07-31T15:51:46.749Z,47.91
2018-07-31T15:54:16.214Z,46.47
2018-07-31T15:56:45.910Z,45.77
2018-07-31T15:59:15.448Z,46.13
2018-07-31T16:01:45.056Z,45.57
2018-07-31T16:04:14.559Z,45.27
2018-07-31T16:06:44.067Z,45.06
2018-07-31T16:09:13.572Z,45.53
2018-07-31T16:11:43.173Z,45.28
2018-07-31T16:14:12.624Z,44.09
2018-07-31T16:16:42.067Z,41.91
2018-07-31T16:19:11.615Z,41.15
2018-07-31T16:21:41.126Z,40.60
2018-07-31T16:24:10.779Z,39.66
2018-07-31T16:26:40.275Z,38.82
2018-07-31T16:29:09.865Z,38.78
2018-07-31T16:31:39.395Z,40.70
2018-07-31T16:34:09.030Z,41.19
2018-07-31T16:36:38.402Z,40.61
2018-07-31T16:39:10.291Z,40.24
2018-07-31T16:41:39.849Z,39.75
2018-07-31T16:44:09.483Z,39.34
2018-07-31T16:46:38.963Z,39.00
2018-07-31T16:49:08.623Z,40.36
2018-07-31T16:51:38.182Z,41.99
2018-07-31T16:54:07.804Z,43.08
2018-07-31T16:56:37.319Z,43.72
2018-07-31T16:59:06.777Z,43.13
2018-07-31T17:01:36.387Z,41.97
2018-07-31T17:04:06.029Z,41.59
2018-07-31T17:06:35.724Z,41.28
2018-07-31T17:09:07.264Z,41.63
2018-07-31T17:11:36.827Z,42.56
2018-07-31T17:14:06.463Z,42.76
2018-07-31T17:16:36.133Z,42.36
2018-07-31T17:19:05.664Z,41.97
2018-07-31T17:21:35.590Z,41.55
2018-07-31T17:24:05.172Z,41.08
2018-07-31T17:26:34.767Z,40.56
2018-07-31T17:29:04.423Z,40.19
2018-07-31T17:31:33.925Z,39.69
2018-07-31T17:34:03.527Z,38.90
2018-07-31T17:36:33.253Z,39.13
2018-07-31T17:39:02.900Z,39.14
2018-07-31T17:41:32.507Z,39.37
2018-07-31T17:44:02.027Z,39.89
2018-07-31T17:46:31.559Z,40.35
2018-07-31T17:49:01.042Z,40.71
2018-07-31T17:51:30.523Z,40.59
2018-07-31T17:54:00.106Z,40.85
2018-07-31T17:56:29.695Z,41.08
2018-07-31T17:58:59.162Z,40.95
2018-07-31T18:01:28.668Z,41.17
2018-07-31T18:03:58.254Z,41.34
2018-07-31T18:06:27.789Z,40.96
2018-07-31T18:08:57.339Z,40.71
2018-07-31T18:11:26.921Z,39.83
2018-07-31T18:13:56.340Z,38.77
2018-07-31T18:16:25.852Z,37.60
2018-07-31T18:18:55.323Z,36.64
2018-07-31T18:21:24.841Z,35.76
2018-07-31T18:23:54.355Z,35.10
2018-07-31T18:26:23.816Z,34.10
2018-07-31T18:28:53.275Z,33.36
2018-07-31T18:31:22.823Z,32.86
2018-07-31T18:33:52.463Z,32.81
2018-07-31T18:36:21.983Z,32.55
2018-07-31T18:38:51.426Z,32.41
2018-07-31T18:41:20.899Z,32.01
2018-07-31T18:43:50.292Z,31.59
2018-07-31T18:46:19.758Z,31.48
2018-07-31T18:48:49.191Z,31.38
2018-07-31T18:51:18.633Z,31.08
2018-07-31T18:53:48.103Z,30.79
2018-07-31T18:56:17.524Z,30.69
2018-07-31T18:58:46.953Z,30.55
2018-07-31T19:01:16.500Z,30.33
2018-07-31T19:03:45.903Z,30.22
2018-07-31T19:06:15.421Z,29.95
2018-07-31T19:08:44.943Z,29.91
2018-07-31T19:11:14.430Z,29.80
2018-07-31T19:13:43.888Z,29.76
2018-07-31T19:16:13.319Z,29.60
2018-07-31T19:18:42.795Z,29.62
2018-07-31T19:21:12.238Z,29.53
2018-07-31T19:23:41.749Z,29.39
2018-07-31T19:26:11.219Z,29.28
2018-07-31T19:28:40.465Z,29.16
2018-07-31T19:31:10.004Z,28.98
2018-07-31T19:33:39.490Z,29.01
2018-07-31T19:36:09.110Z,28.84
2018-07-31T19:38:38.614Z,28.79
2018-07-31T19:41:08.488Z,28.73
2018-07-31T19:43:38.022Z,28.62
2018-07-31T19:46:08.361Z,28.64
2018-07-31T19:48:37.748Z,28.50
2018-07-31T19:51:07.254Z,28.52
2018-07-31T19:53:36.710Z,28.40
2018-07-31T19:56:05.910Z,28.28
2018-07-31T19:58:35.358Z,28.24
2018-07-31T20:01:04.914Z,28.19
2018-07-31T20:03:34.565Z,28.20
2018-07-31T20:06:04.120Z,28.21
2018-07-31T20:08:33.846Z,28.24
2018-07-31T20:11:03.377Z,28.18
2018-07-31T20:13:32.860Z,28.05
2018-07-31T20:16:02.575Z,27.97
2018-07-31T20:18:32.559Z,27.85
2018-07-31T20:21:02.061Z,27.76
2018-07-31T20:23:31.602Z,27.70
2018-07-31T20:26:01.147Z,27.65
2018-07-31T20:28:30.588Z,27.57
2018-07-31T20:31:00.147Z,27.59
2018-07-31T20:33:30.091Z,27.56
2018-07-31T20:35:59.517Z,27.50
2018-07-31T20:38:29.025Z,27.39
2018-07-31T20:40:58.235Z,27.32
2018-07-31T20:43:27.757Z,27.36
2018-07-31T20:45:57.049Z,27.19
2018-07-31T20:48:26.567Z,27.19
2018-07-31T20:50:56.050Z,27.17
2018-07-31T20:53:25.504Z,27.21
2018-07-31T20:55:54.981Z,27.20
2018-07-31T20:58:24.413Z,27.11
2018-07-31T21:00:54.004Z,27.13
2018-07-31T21:03:23.477Z,27.19
2018-07-31T21:05:52.937Z,27.18
2018-07-31T21:08:22.427Z,27.16
2018-07-31T21:10:52.028Z,27.16
2018-07-31T21:13:21.485Z,27.11
2018-07-31T21:15:50.929Z,27.03
2018-07-31T21:18:20.398Z,26.95
2018-07-31T21:20:49.835Z,26.94
2018-07-31T21:23:19.254Z,27.02
2018-07-31T21:25:48.688Z,27.00
2018-07-31T21:28:18.157Z,27.01
2018-07-31T21:30:47.539Z,26.85
2018-07-31T21:33:17.022Z,26.62
2018-07-31T21:35:46.513Z,26.60
2018-07-31T21:38:15.953Z,26.52
2018-07-31T21:40:45.412Z,26.59
2018-07-31T21:43:14.852Z,26.45
2018-07-31T21:45:44.311Z,26.30
2018-07-31T21:48:13.824Z,26.23
2018-07-31T21:50:43.275Z,26.31
2018-07-31T21:53:12.746Z,26.22
2018-07-31T21:55:42.196Z,26.11
2018-07-31T21:58:11.618Z,26.04
2018-07-31T22:00:46.323Z,25.94
2018-07-31T22:03:15.756Z,26.11
2018-07-31T22:05:45.233Z,26.08
2018-07-31T22:08:14.322Z,26.09
2018-07-31T22:10:43.775Z,26.02
2018-07-31T22:13:13.263Z,25.97
2018-07-31T22:15:42.710Z,25.93
2018-07-31T22:18:11.838Z,25.90
2018-07-31T22:20:41.311Z,25.85
2018-07-31T22:23:10.531Z,25.79
2018-07-31T22:25:39.962Z,25.62
2018-07-31T22:28:09.492Z,25.44
2018-07-31T22:30:38.935Z,25.43
2018-07-31T22:33:08.377Z,25.46
2018-07-31T22:35:37.848Z,25.24
2018-07-31T22:38:07.578Z,25.29
2018-07-31T22:40:37.137Z,25.27
2018-07-31T22:43:06.597Z,25.02
2018-07-31T22:45:36.022Z,25.06
2018-07-31T22:48:05.696Z,25.06
2018-07-31T22:50:35.151Z,24.98
2018-07-31T22:53:04.743Z,24.89
2018-07-31T22:55:34.175Z,24.86
2018-07-31T22:58:03.744Z,24.86
2018-07-31T23:00:33.130Z,24.77
2018-07-31T23:03:02.659Z,24.83
2018-07-31T23:05:32.087Z,24.91
2018-07-31T23:08:01.544Z,24.88
2018-07-31T23:10:30.978Z,24.74
2018-07-31T23:13:00.397Z,24.91
2018-07-31T23:15:29.534Z,24.81
2018-07-31T23:17:58.962Z,24.77
2018-07-31T23:20:28.415Z,24.80
2018-07-31T23:22:57.860Z,24.74
2018-07-31T23:25:27.319Z,24.79
2018-07-31T23:27:56.463Z,24.63
2018-07-31T23:30:26.338Z,24.63
2018-07-31T23:32:55.764Z,24.75
2018-07-31T23:35:25.183Z,24.78
2018-07-31T23:37:54.687Z,24.71
2018-07-31T23:40:24.040Z,24.65
2018-07-31T23:42:53.271Z,24.70
2018-07-31T23:45:22.942Z,24.57
2018-07-31T23:47:52.582Z,24.64
2018-07-31T23:50:22.251Z,24.70
2018-07-31T23:52:51.978Z,24.72
2018-07-31T23:55:21.666Z,24.70
2018-07-31T23:57:51.269Z,24.69
